Terminal Aerodrome Forecast
Issued by NWS Tuscon, AZ

Home | Current Version | Previous Version | Text Only | Print | Product List | Glossary On
Versions: 1 2 3 4 5 6 7 8 9 10 11 12 13 14
777
FTUS45 KTWC 202340
TAFTUS
TAF
KTUS 202340Z 2100/2124 19015G25KT P6SM VCSH OVC050
      TEMPO 2100/2103 4SM SHRA BKN025 OVC040
     FM210300 19025G35KT P6SM RA OVC025
     FM210900 26015G25KT 4SM RA BR OVC020
     FM211400 28014KT P6SM RA SCT020 BKN040
     FM211700 28025G35KT P6SM RA SCT030 BKN050=

USA.gov is the U.S. government's official web portal to all federal, state and local government web resources and services.